sensor_id;sensor_type;location;lat;lon;timestamp;P1;durP1;ratioP1;P2;durP2;ratioP2
77581;SDS011;66726;52.388;9.986;2023-09-07T00:01:09;5.65;;;4.72;;
77581;SDS011;66726;52.388;9.986;2023-09-07T00:03:42;5.93;;;4.93;;
77581;SDS011;66726;52.388;9.986;2023-09-07T00:06:16;6.35;;;5.13;;
77581;SDS011;66726;52.388;9.986;2023-09-07T00:08:50;6.30;;;4.78;;
77581;SDS011;66726;52.388;9.986;2023-09-07T00:11:23;6.83;;;4.87;;
77581;SDS011;66726;52.388;9.986;2023-09-07T00:13:57;7.97;;;5.32;;
77581;SDS011;66726;52.388;9.986;2023-09-07T00:16:32;6.65;;;5.10;;
77581;SDS011;66726;52.388;9.986;2023-09-07T00:19:06;7.00;;;4.90;;
77581;SDS011;66726;52.388;9.986;2023-09-07T00:21:39;5.47;;;4.80;;
77581;SDS011;66726;52.388;9.986;2023-09-07T00:24:13;5.38;;;4.88;;
77581;SDS011;66726;52.388;9.986;2023-09-07T00:26:47;6.75;;;4.72;;
77581;SDS011;66726;52.388;9.986;2023-09-07T00:29:21;6.43;;;4.90;;
77581;SDS011;66726;52.388;9.986;2023-09-07T00:31:54;6.57;;;5.00;;
77581;SDS011;66726;52.388;9.986;2023-09-07T00:34:28;5.27;;;4.57;;
77581;SDS011;66726;52.388;9.986;2023-09-07T00:37:01;6.28;;;4.53;;
77581;SDS011;66726;52.388;9.986;2023-09-07T00:39:35;6.80;;;4.60;;
77581;SDS011;66726;52.388;9.986;2023-09-07T00:42:08;6.35;;;4.90;;
77581;SDS011;66726;52.388;9.986;2023-09-07T00:44:41;5.50;;;4.90;;
77581;SDS011;66726;52.388;9.986;2023-09-07T00:47:15;7.07;;;4.88;;
77581;SDS011;66726;52.388;9.986;2023-09-07T00:49:50;6.22;;;5.00;;
77581;SDS011;66726;52.388;9.986;2023-09-07T00:52:26;5.97;;;5.00;;
77581;SDS011;66726;52.388;9.986;2023-09-07T00:55:00;6.97;;;5.22;;
77581;SDS011;66726;52.388;9.986;2023-09-07T00:57:37;7.05;;;5.50;;
77581;SDS011;66726;52.388;9.986;2023-09-07T01:00:12;7.30;;;5.60;;
77581;SDS011;66726;52.388;9.986;2023-09-07T01:02:46;6.10;;;5.00;;
77581;SDS011;66726;52.388;9.986;2023-09-07T01:05:20;7.10;;;5.60;;
77581;SDS011;66726;52.388;9.986;2023-09-07T01:08:03;6.63;;;5.70;;
77581;SDS011;66726;52.388;9.986;2023-09-07T01:10:52;5.60;;;5.10;;
77581;SDS011;66726;52.388;9.986;2023-09-07T01:13:25;9.13;;;5.88;;
77581;SDS011;66726;52.388;9.986;2023-09-07T01:15:59;7.65;;;5.70;;
77581;SDS011;66726;52.388;9.986;2023-09-07T01:18:32;7.47;;;5.82;;
77581;SDS011;66726;52.388;9.986;2023-09-07T01:21:07;7.65;;;5.70;;
77581;SDS011;66726;52.388;9.986;2023-09-07T01:23:43;7.03;;;5.63;;
77581;SDS011;66726;52.388;9.986;2023-09-07T01:26:18;6.53;;;5.65;;
77581;SDS011;66726;52.388;9.986;2023-09-07T01:28:51;7.80;;;5.32;;
77581;SDS011;66726;52.388;9.986;2023-09-07T01:31:25;6.67;;;5.47;;
77581;SDS011;66726;52.388;9.986;2023-09-07T01:33:58;5.97;;;5.38;;
77581;SDS011;66726;52.388;9.986;2023-09-07T01:36:32;7.37;;;5.77;;
77581;SDS011;66726;52.388;9.986;2023-09-07T01:39:05;6.90;;;5.83;;
77581;SDS011;66726;52.388;9.986;2023-09-07T01:41:40;6.82;;;5.82;;
77581;SDS011;66726;52.388;9.986;2023-09-07T01:44:13;5.90;;;5.40;;
77581;SDS011;66726;52.388;9.986;2023-09-07T01:46:46;7.70;;;6.18;;
77581;SDS011;66726;52.388;9.986;2023-09-07T01:49:20;8.80;;;5.93;;
77581;SDS011;66726;52.388;9.986;2023-09-07T01:51:53;6.20;;;5.63;;
77581;SDS011;66726;52.388;9.986;2023-09-07T01:54:26;6.88;;;6.03;;
77581;SDS011;66726;52.388;9.986;2023-09-07T01:57:00;7.40;;;5.90;;
77581;SDS011;66726;52.388;9.986;2023-09-07T01:59:33;7.28;;;5.97;;
77581;SDS011;66726;52.388;9.986;2023-09-07T02:02:07;7.22;;;6.10;;
77581;SDS011;66726;52.388;9.986;2023-09-07T02:04:41;7.45;;;6.03;;
77581;SDS011;66726;52.388;9.986;2023-09-07T02:07:14;8.10;;;6.03;;
77581;SDS011;66726;52.388;9.986;2023-09-07T02:09:47;6.47;;;5.65;;
77581;SDS011;66726;52.388;9.986;2023-09-07T02:12:21;8.18;;;6.15;;
77581;SDS011;66726;52.388;9.986;2023-09-07T02:14:55;6.65;;;5.97;;
77581;SDS011;66726;52.388;9.986;2023-09-07T02:17:33;6.45;;;5.50;;
77581;SDS011;66726;52.388;9.986;2023-09-07T02:20:07;7.18;;;6.30;;
77581;SDS011;66726;52.388;9.986;2023-09-07T02:22:42;7.90;;;5.97;;
77581;SDS011;66726;52.388;9.986;2023-09-07T02:25:15;6.50;;;5.90;;
77581;SDS011;66726;52.388;9.986;2023-09-07T02:27:49;6.75;;;6.15;;
77581;SDS011;66726;52.388;9.986;2023-09-07T02:30:22;7.40;;;6.05;;
77581;SDS011;66726;52.388;9.986;2023-09-07T02:32:56;8.02;;;6.03;;
77581;SDS011;66726;52.388;9.986;2023-09-07T02:35:29;7.53;;;6.22;;
77581;SDS011;66726;52.388;9.986;2023-09-07T02:38:05;7.18;;;6.50;;
77581;SDS011;66726;52.388;9.986;2023-09-07T02:40:40;8.80;;;6.75;;
77581;SDS011;66726;52.388;9.986;2023-09-07T02:43:15;6.73;;;6.03;;
77581;SDS011;66726;52.388;9.986;2023-09-07T02:45:50;7.07;;;6.13;;
77581;SDS011;66726;52.388;9.986;2023-09-07T02:48:23;7.50;;;6.60;;
77581;SDS011;66726;52.388;9.986;2023-09-07T02:50:57;7.13;;;6.45;;
77581;SDS011;66726;52.388;9.986;2023-09-07T02:53:31;7.00;;;6.30;;
77581;SDS011;66726;52.388;9.986;2023-09-07T02:56:04;7.03;;;6.32;;
77581;SDS011;66726;52.388;9.986;2023-09-07T02:58:39;7.65;;;6.90;;
77581;SDS011;66726;52.388;9.986;2023-09-07T03:01:13;7.35;;;6.60;;
77581;SDS011;66726;52.388;9.986;2023-09-07T03:03:49;7.47;;;6.63;;
77581;SDS011;66726;52.388;9.986;2023-09-07T03:06:23;8.20;;;7.30;;
77581;SDS011;66726;52.388;9.986;2023-09-07T03:08:56;7.88;;;7.15;;
77581;SDS011;66726;52.388;9.986;2023-09-07T03:11:29;8.15;;;6.90;;
77581;SDS011;66726;52.388;9.986;2023-09-07T03:14:03;8.00;;;6.68;;
77581;SDS011;66726;52.388;9.986;2023-09-07T03:16:36;9.55;;;6.97;;
77581;SDS011;66726;52.388;9.986;2023-09-07T03:19:10;8.27;;;7.28;;
77581;SDS011;66726;52.388;9.986;2023-09-07T03:21:43;7.50;;;6.73;;
77581;SDS011;66726;52.388;9.986;2023-09-07T03:24:16;7.45;;;6.75;;
77581;SDS011;66726;52.388;9.986;2023-09-07T03:26:49;7.00;;;6.35;;
77581;SDS011;66726;52.388;9.986;2023-09-07T03:29:23;7.75;;;6.95;;
77581;SDS011;66726;52.388;9.986;2023-09-07T03:31:59;7.53;;;6.72;;
77581;SDS011;66726;52.388;9.986;2023-09-07T03:34:33;7.83;;;6.30;;
77581;SDS011;66726;52.388;9.986;2023-09-07T03:37:07;7.30;;;6.50;;
77581;SDS011;66726;52.388;9.986;2023-09-07T03:39:40;7.65;;;6.70;;
77581;SDS011;66726;52.388;9.986;2023-09-07T03:42:13;8.35;;;7.45;;
77581;SDS011;66726;52.388;9.986;2023-09-07T03:44:47;7.78;;;7.07;;
77581;SDS011;66726;52.388;9.986;2023-09-07T03:47:20;8.40;;;7.40;;
77581;SDS011;66726;52.388;9.986;2023-09-07T03:49:57;8.43;;;6.93;;
77581;SDS011;66726;52.388;9.986;2023-09-07T03:52:31;9.15;;;7.63;;
77581;SDS011;66726;52.388;9.986;2023-09-07T03:55:05;9.88;;;7.43;;
77581;SDS011;66726;52.388;9.986;2023-09-07T03:57:40;8.32;;;7.45;;
77581;SDS011;66726;52.388;9.986;2023-09-07T04:00:15;8.43;;;7.45;;
77581;SDS011;66726;52.388;9.986;2023-09-07T04:02:49;8.32;;;7.53;;
77581;SDS011;66726;52.388;9.986;2023-09-07T04:05:25;8.60;;;7.60;;
77581;SDS011;66726;52.388;9.986;2023-09-07T04:07:58;8.45;;;7.65;;
77581;SDS011;66726;52.388;9.986;2023-09-07T04:10:32;8.40;;;7.60;;
77581;SDS011;66726;52.388;9.986;2023-09-07T04:13:07;8.68;;;7.78;;
77581;SDS011;66726;52.388;9.986;2023-09-07T04:15:43;9.43;;;8.03;;
77581;SDS011;66726;52.388;9.986;2023-09-07T04:18:16;9.20;;;7.95;;
77581;SDS011;66726;52.388;9.986;2023-09-07T04:20:50;8.95;;;8.05;;
77581;SDS011;66726;52.388;9.986;2023-09-07T04:23:33;8.98;;;7.90;;
77581;SDS011;66726;52.388;9.986;2023-09-07T04:26:07;9.10;;;8.10;;
77581;SDS011;66726;52.388;9.986;2023-09-07T04:28:42;8.37;;;7.57;;
77581;SDS011;66726;52.388;9.986;2023-09-07T04:31:16;22.98;;;9.45;;
77581;SDS011;66726;52.388;9.986;2023-09-07T04:33:49;9.35;;;8.02;;
77581;SDS011;66726;52.388;9.986;2023-09-07T04:36:23;9.63;;;8.03;;
77581;SDS011;66726;52.388;9.986;2023-09-07T04:38:56;8.32;;;7.60;;
77581;SDS011;66726;52.388;9.986;2023-09-07T04:41:31;9.18;;;7.68;;
77581;SDS011;66726;52.388;9.986;2023-09-07T04:44:04;8.80;;;7.82;;
77581;SDS011;66726;52.388;9.986;2023-09-07T04:46:38;9.30;;;8.40;;
77581;SDS011;66726;52.388;9.986;2023-09-07T04:49:12;9.90;;;8.30;;
77581;SDS011;66726;52.388;9.986;2023-09-07T04:51:45;9.55;;;8.27;;
77581;SDS011;66726;52.388;9.986;2023-09-07T04:54:18;8.80;;;8.00;;
77581;SDS011;66726;52.388;9.986;2023-09-07T04:56:52;9.75;;;7.97;;
77581;SDS011;66726;52.388;9.986;2023-09-07T04:59:25;9.40;;;8.50;;
77581;SDS011;66726;52.388;9.986;2023-09-07T05:02:00;9.25;;;8.35;;
77581;SDS011;66726;52.388;9.986;2023-09-07T05:04:33;9.05;;;8.13;;
77581;SDS011;66726;52.388;9.986;2023-09-07T05:07:07;8.98;;;8.18;;
77581;SDS011;66726;52.388;9.986;2023-09-07T05:09:42;8.65;;;7.75;;
77581;SDS011;66726;52.388;9.986;2023-09-07T05:12:16;9.93;;;8.40;;
77581;SDS011;66726;52.388;9.986;2023-09-07T05:14:49;9.23;;;7.07;;
77581;SDS011;66726;52.388;9.986;2023-09-07T05:17:23;9.93;;;8.50;;
77581;SDS011;66726;52.388;9.986;2023-09-07T05:19:57;11.60;;;8.38;;
77581;SDS011;66726;52.388;9.986;2023-09-07T05:22:30;9.02;;;8.07;;
77581;SDS011;66726;52.388;9.986;2023-09-07T05:25:06;9.50;;;8.25;;
77581;SDS011;66726;52.388;9.986;2023-09-07T05:27:41;9.60;;;8.70;;
77581;SDS011;66726;52.388;9.986;2023-09-07T05:30:14;8.90;;;7.83;;
77581;SDS011;66726;52.388;9.986;2023-09-07T05:32:48;9.57;;;8.57;;
77581;SDS011;66726;52.388;9.986;2023-09-07T05:35:21;9.30;;;8.13;;
77581;SDS011;66726;52.388;9.986;2023-09-07T05:37:57;11.25;;;8.43;;
77581;SDS011;66726;52.388;9.986;2023-09-07T05:40:30;9.87;;;8.57;;
77581;SDS011;66726;52.388;9.986;2023-09-07T05:43:07;10.18;;;8.25;;
77581;SDS011;66726;52.388;9.986;2023-09-07T05:45:41;9.82;;;8.30;;
77581;SDS011;66726;52.388;9.986;2023-09-07T05:48:15;13.10;;;9.18;;
77581;SDS011;66726;52.388;9.986;2023-09-07T05:50:48;13.90;;;8.80;;
77581;SDS011;66726;52.388;9.986;2023-09-07T05:53:22;10.80;;;8.80;;
77581;SDS011;66726;52.388;9.986;2023-09-07T05:55:55;13.40;;;9.13;;
77581;SDS011;66726;52.388;9.986;2023-09-07T05:58:29;9.93;;;8.75;;
77581;SDS011;66726;52.388;9.986;2023-09-07T06:01:02;11.10;;;9.20;;
77581;SDS011;66726;52.388;9.986;2023-09-07T06:03:35;10.10;;;9.10;;
77581;SDS011;66726;52.388;9.986;2023-09-07T06:06:09;10.18;;;9.02;;
77581;SDS011;66726;52.388;9.986;2023-09-07T06:08:43;9.77;;;8.27;;
77581;SDS011;66726;52.388;9.986;2023-09-07T06:11:16;9.33;;;8.30;;
77581;SDS011;66726;52.388;9.986;2023-09-07T06:13:49;10.48;;;9.05;;
77581;SDS011;66726;52.388;9.986;2023-09-07T06:16:22;12.17;;;9.10;;
77581;SDS011;66726;52.388;9.986;2023-09-07T06:18:56;11.60;;;9.20;;
77581;SDS011;66726;52.388;9.986;2023-09-07T06:21:29;10.75;;;8.93;;
77581;SDS011;66726;52.388;9.986;2023-09-07T06:24:03;10.38;;;9.20;;
77581;SDS011;66726;52.388;9.986;2023-09-07T06:26:37;11.10;;;9.57;;
77581;SDS011;66726;52.388;9.986;2023-09-07T06:29:10;11.77;;;9.55;;
77581;SDS011;66726;52.388;9.986;2023-09-07T06:31:43;10.65;;;9.02;;
77581;SDS011;66726;52.388;9.986;2023-09-07T06:34:18;10.60;;;9.52;;
77581;SDS011;66726;52.388;9.986;2023-09-07T06:36:51;11.50;;;9.53;;
77581;SDS011;66726;52.388;9.986;2023-09-07T06:39:25;10.13;;;9.10;;
77581;SDS011;66726;52.388;9.986;2023-09-07T06:41:58;10.23;;;9.23;;
77581;SDS011;66726;52.388;9.986;2023-09-07T06:44:33;10.07;;;9.10;;
77581;SDS011;66726;52.388;9.986;2023-09-07T06:47:06;9.15;;;8.25;;
77581;SDS011;66726;52.388;9.986;2023-09-07T06:49:40;9.85;;;8.93;;
77581;SDS011;66726;52.388;9.986;2023-09-07T06:52:13;10.87;;;8.47;;
77581;SDS011;66726;52.388;9.986;2023-09-07T06:54:46;9.52;;;8.55;;
77581;SDS011;66726;52.388;9.986;2023-09-07T06:57:22;10.43;;;8.63;;
77581;SDS011;66726;52.388;9.986;2023-09-07T06:59:55;9.95;;;8.77;;
77581;SDS011;66726;52.388;9.986;2023-09-07T07:02:28;9.90;;;8.90;;
77581;SDS011;66726;52.388;9.986;2023-09-07T07:05:04;10.57;;;9.45;;
77581;SDS011;66726;52.388;9.986;2023-09-07T07:07:39;10.77;;;8.93;;
77581;SDS011;66726;52.388;9.986;2023-09-07T07:10:13;9.60;;;8.70;;
77581;SDS011;66726;52.388;9.986;2023-09-07T07:12:47;11.32;;;8.88;;
77581;SDS011;66726;52.388;9.986;2023-09-07T07:15:21;9.63;;;8.32;;
77581;SDS011;66726;52.388;9.986;2023-09-07T07:17:54;11.45;;;8.45;;
77581;SDS011;66726;52.388;9.986;2023-09-07T07:20:27;10.05;;;8.77;;
77581;SDS011;66726;52.388;9.986;2023-09-07T07:23:01;9.52;;;8.48;;
77581;SDS011;66726;52.388;9.986;2023-09-07T07:25:35;9.35;;;8.23;;
77581;SDS011;66726;52.388;9.986;2023-09-07T07:28:09;9.82;;;7.97;;
77581;SDS011;66726;52.388;9.986;2023-09-07T07:30:42;9.63;;;7.95;;
77581;SDS011;66726;52.388;9.986;2023-09-07T07:33:15;26.80;;;9.73;;
77581;SDS011;66726;52.388;9.986;2023-09-07T07:35:49;10.60;;;7.57;;
77581;SDS011;66726;52.388;9.986;2023-09-07T07:38:23;8.87;;;7.33;;
77581;SDS011;66726;52.388;9.986;2023-09-07T07:40:56;9.55;;;7.55;;
77581;SDS011;66726;52.388;9.986;2023-09-07T07:43:31;8.85;;;7.35;;
77581;SDS011;66726;52.388;9.986;2023-09-07T07:46:05;10.55;;;7.15;;
77581;SDS011;66726;52.388;9.986;2023-09-07T07:48:39;9.05;;;7.20;;
77581;SDS011;66726;52.388;9.986;2023-09-07T07:51:13;8.60;;;7.10;;
77581;SDS011;66726;52.388;9.986;2023-09-07T07:53:46;10.77;;;7.50;;
77581;SDS011;66726;52.388;9.986;2023-09-07T07:56:19;8.30;;;6.47;;
77581;SDS011;66726;52.388;9.986;2023-09-07T07:58:54;8.75;;;6.85;;
77581;SDS011;66726;52.388;9.986;2023-09-07T08:01:27;8.30;;;6.85;;
77581;SDS011;66726;52.388;9.986;2023-09-07T08:04:01;7.60;;;6.80;;
77581;SDS011;66726;52.388;9.986;2023-09-07T08:06:35;9.50;;;6.70;;
77581;SDS011;66726;52.388;9.986;2023-09-07T08:09:08;10.65;;;6.95;;
77581;SDS011;66726;52.388;9.986;2023-09-07T08:11:42;8.27;;;6.40;;
77581;SDS011;66726;52.388;9.986;2023-09-07T08:14:15;8.43;;;6.47;;
77581;SDS011;66726;52.388;9.986;2023-09-07T08:16:50;8.77;;;7.05;;
77581;SDS011;66726;52.388;9.986;2023-09-07T08:19:25;10.85;;;6.60;;
77581;SDS011;66726;52.388;9.986;2023-09-07T08:21:59;7.65;;;6.38;;
77581;SDS011;66726;52.388;9.986;2023-09-07T08:24:34;7.53;;;6.72;;
77581;SDS011;66726;52.388;9.986;2023-09-07T08:27:08;7.63;;;6.60;;
77581;SDS011;66726;52.388;9.986;2023-09-07T08:29:46;8.65;;;6.63;;
77581;SDS011;66726;52.388;9.986;2023-09-07T08:32:20;7.47;;;6.73;;
77581;SDS011;66726;52.388;9.986;2023-09-07T08:34:53;9.18;;;6.45;;
77581;SDS011;66726;52.388;9.986;2023-09-07T08:37:29;7.43;;;6.47;;
77581;SDS011;66726;52.388;9.986;2023-09-07T08:40:02;10.65;;;6.55;;
77581;SDS011;66726;52.388;9.986;2023-09-07T08:42:39;7.50;;;6.70;;
77581;SDS011;66726;52.388;9.986;2023-09-07T08:45:13;7.10;;;6.40;;
77581;SDS011;66726;52.388;9.986;2023-09-07T08:47:50;8.23;;;6.60;;
77581;SDS011;66726;52.388;9.986;2023-09-07T08:50:27;10.00;;;6.43;;
77581;SDS011;66726;52.388;9.986;2023-09-07T08:53:02;10.75;;;6.50;;
77581;SDS011;66726;52.388;9.986;2023-09-07T08:55:36;7.40;;;6.57;;
77581;SDS011;66726;52.388;9.986;2023-09-07T08:58:09;9.10;;;6.70;;
77581;SDS011;66726;52.388;9.986;2023-09-07T09:00:43;8.98;;;6.53;;
77581;SDS011;66726;52.388;9.986;2023-09-07T09:03:18;7.88;;;5.97;;
77581;SDS011;66726;52.388;9.986;2023-09-07T09:05:52;9.68;;;6.50;;
77581;SDS011;66726;52.388;9.986;2023-09-07T09:08:27;6.25;;;5.65;;
77581;SDS011;66726;52.388;9.986;2023-09-07T09:11:10;8.13;;;5.93;;
77581;SDS011;66726;52.388;9.986;2023-09-07T09:13:44;7.63;;;5.97;;
77581;SDS011;66726;52.388;9.986;2023-09-07T09:16:20;6.43;;;4.90;;
77581;SDS011;66726;52.388;9.986;2023-09-07T09:18:55;9.23;;;5.97;;
77581;SDS011;66726;52.388;9.986;2023-09-07T09:21:28;7.37;;;5.60;;
77581;SDS011;66726;52.388;9.986;2023-09-07T09:24:02;7.97;;;5.88;;
77581;SDS011;66726;52.388;9.986;2023-09-07T09:26:40;6.95;;;5.50;;
77581;SDS011;66726;52.388;9.986;2023-09-07T09:29:14;9.37;;;5.73;;
77581;SDS011;66726;52.388;9.986;2023-09-07T09:31:51;8.60;;;5.70;;
77581;SDS011;66726;52.388;9.986;2023-09-07T09:34:24;9.00;;;5.80;;
77581;SDS011;66726;52.388;9.986;2023-09-07T09:37:03;7.85;;;5.65;;
77581;SDS011;66726;52.388;9.986;2023-09-07T09:39:44;9.48;;;6.07;;
77581;SDS011;66726;52.388;9.986;2023-09-07T09:42:23;6.95;;;5.55;;
77581;SDS011;66726;52.388;9.986;2023-09-07T09:44:56;9.98;;;5.47;;
77581;SDS011;66726;52.388;9.986;2023-09-07T09:47:33;9.38;;;5.90;;
77581;SDS011;66726;52.388;9.986;2023-09-07T09:50:12;9.18;;;6.13;;
77581;SDS011;66726;52.388;9.986;2023-09-07T09:52:45;9.65;;;5.70;;
77581;SDS011;66726;52.388;9.986;2023-09-07T09:55:21;11.32;;;6.05;;
77581;SDS011;66726;52.388;9.986;2023-09-07T09:57:56;7.05;;;5.20;;
77581;SDS011;66726;52.388;9.986;2023-09-07T10:00:29;6.88;;;5.95;;
77581;SDS011;66726;52.388;9.986;2023-09-07T10:03:07;10.35;;;5.88;;
77581;SDS011;66726;52.388;9.986;2023-09-07T10:05:48;6.18;;;5.18;;
77581;SDS011;66726;52.388;9.986;2023-09-07T10:08:21;7.90;;;5.50;;
77581;SDS011;66726;52.388;9.986;2023-09-07T10:10:59;8.57;;;6.03;;
77581;SDS011;66726;52.388;9.986;2023-09-07T10:13:38;7.97;;;5.65;;
77581;SDS011;66726;52.388;9.986;2023-09-07T10:16:12;7.63;;;5.40;;
77581;SDS011;66726;52.388;9.986;2023-09-07T10:18:46;7.35;;;5.68;;
77581;SDS011;66726;52.388;9.986;2023-09-07T10:21:20;7.30;;;5.90;;
77581;SDS011;66726;52.388;9.986;2023-09-07T10:23:55;8.63;;;5.63;;
77581;SDS011;66726;52.388;9.986;2023-09-07T10:26:28;6.97;;;5.32;;
77581;SDS011;66726;52.388;9.986;2023-09-07T10:29:02;9.20;;;5.57;;
77581;SDS011;66726;52.388;9.986;2023-09-07T10:31:36;9.15;;;5.65;;
77581;SDS011;66726;52.388;9.986;2023-09-07T10:34:21;7.20;;;5.60;;
77581;SDS011;66726;52.388;9.986;2023-09-07T10:37:07;6.03;;;5.40;;
77581;SDS011;66726;52.388;9.986;2023-09-07T10:39:41;7.47;;;5.80;;
77581;SDS011;66726;52.388;9.986;2023-09-07T10:42:23;6.00;;;5.30;;
77581;SDS011;66726;52.388;9.986;2023-09-07T10:45:07;6.97;;;5.35;;
77581;SDS011;66726;52.388;9.986;2023-09-07T10:47:44;8.00;;;5.50;;
77581;SDS011;66726;52.388;9.986;2023-09-07T10:50:18;8.00;;;5.40;;
77581;SDS011;66726;52.388;9.986;2023-09-07T10:52:51;9.68;;;5.50;;
77581;SDS011;66726;52.388;9.986;2023-09-07T10:55:24;8.40;;;5.60;;
77581;SDS011;66726;52.388;9.986;2023-09-07T10:58:05;6.63;;;5.45;;
77581;SDS011;66726;52.388;9.986;2023-09-07T11:00:39;6.85;;;5.38;;
77581;SDS011;66726;52.388;9.986;2023-09-07T11:03:12;5.70;;;5.20;;
77581;SDS011;66726;52.388;9.986;2023-09-07T11:05:46;8.32;;;5.20;;
77581;SDS011;66726;52.388;9.986;2023-09-07T11:08:22;6.05;;;4.97;;
77581;SDS011;66726;52.388;9.986;2023-09-07T11:10:58;9.40;;;5.03;;
77581;SDS011;66726;52.388;9.986;2023-09-07T11:13:32;6.03;;;5.10;;
77581;SDS011;66726;52.388;9.986;2023-09-07T11:16:07;8.00;;;5.35;;
77581;SDS011;66726;52.388;9.986;2023-09-07T11:18:41;7.78;;;5.25;;
77581;SDS011;66726;52.388;9.986;2023-09-07T11:21:16;7.38;;;5.45;;
77581;SDS011;66726;52.388;9.986;2023-09-07T11:23:50;6.93;;;5.30;;
77581;SDS011;66726;52.388;9.986;2023-09-07T11:26:25;6.07;;;5.20;;
77581;SDS011;66726;52.388;9.986;2023-09-07T11:29:09;7.80;;;5.20;;
77581;SDS011;66726;52.388;9.986;2023-09-07T11:31:45;7.32;;;5.03;;
77581;SDS011;66726;52.388;9.986;2023-09-07T11:34:19;5.78;;;5.20;;
77581;SDS011;66726;52.388;9.986;2023-09-07T11:36:52;5.65;;;4.93;;
77581;SDS011;66726;52.388;9.986;2023-09-07T11:39:26;7.20;;;5.22;;
77581;SDS011;66726;52.388;9.986;2023-09-07T11:41:59;9.07;;;5.18;;
77581;SDS011;66726;52.388;9.986;2023-09-07T11:44:32;5.30;;;4.80;;
77581;SDS011;66726;52.388;9.986;2023-09-07T11:47:06;6.72;;;5.35;;
77581;SDS011;66726;52.388;9.986;2023-09-07T11:49:39;7.68;;;5.60;;
77581;SDS011;66726;52.388;9.986;2023-09-07T11:52:12;6.40;;;5.20;;
77581;SDS011;66726;52.388;9.986;2023-09-07T11:54:47;6.57;;;5.07;;
77581;SDS011;66726;52.388;9.986;2023-09-07T11:57:20;5.88;;;4.45;;
77581;SDS011;66726;52.388;9.986;2023-09-07T11:59:54;7.22;;;5.32;;
77581;SDS011;66726;52.388;9.986;2023-09-07T12:02:27;8.43;;;5.27;;
77581;SDS011;66726;52.388;9.986;2023-09-07T12:05:01;7.20;;;5.10;;
77581;SDS011;66726;52.388;9.986;2023-09-07T12:07:36;7.10;;;5.40;;
77581;SDS011;66726;52.388;9.986;2023-09-07T12:10:12;7.00;;;5.07;;
77581;SDS011;66726;52.388;9.986;2023-09-07T12:12:46;7.07;;;4.88;;
77581;SDS011;66726;52.388;9.986;2023-09-07T12:15:19;6.88;;;5.00;;
77581;SDS011;66726;52.388;9.986;2023-09-07T12:17:52;7.22;;;5.05;;
77581;SDS011;66726;52.388;9.986;2023-09-07T12:20:26;6.75;;;5.20;;
77581;SDS011;66726;52.388;9.986;2023-09-07T12:22:59;6.63;;;4.75;;
77581;SDS011;66726;52.388;9.986;2023-09-07T12:25:33;9.38;;;5.28;;
77581;SDS011;66726;52.388;9.986;2023-09-07T12:28:06;9.02;;;5.05;;
77581;SDS011;66726;52.388;9.986;2023-09-07T12:30:39;6.68;;;4.47;;
77581;SDS011;66726;52.388;9.986;2023-09-07T12:33:12;5.47;;;4.82;;
77581;SDS011;66726;52.388;9.986;2023-09-07T12:35:46;4.88;;;4.40;;
77581;SDS011;66726;52.388;9.986;2023-09-07T12:38:19;10.00;;;5.25;;
77581;SDS011;66726;52.388;9.986;2023-09-07T12:40:56;7.63;;;4.97;;
77581;SDS011;66726;52.388;9.986;2023-09-07T12:43:30;5.75;;;5.22;;
77581;SDS011;66726;52.388;9.986;2023-09-07T12:46:03;6.10;;;4.70;;
77581;SDS011;66726;52.388;9.986;2023-09-07T12:48:37;8.18;;;4.63;;
77581;SDS011;66726;52.388;9.986;2023-09-07T12:51:11;6.47;;;4.87;;
77581;SDS011;66726;52.388;9.986;2023-09-07T12:53:45;6.38;;;4.93;;
77581;SDS011;66726;52.388;9.986;2023-09-07T12:56:19;5.65;;;4.72;;
77581;SDS011;66726;52.388;9.986;2023-09-07T12:58:52;7.18;;;5.05;;
77581;SDS011;66726;52.388;9.986;2023-09-07T13:01:27;7.15;;;4.75;;
77581;SDS011;66726;52.388;9.986;2023-09-07T13:04:01;4.70;;;4.30;;
77581;SDS011;66726;52.388;9.986;2023-09-07T13:06:34;6.50;;;4.70;;
77581;SDS011;66726;52.388;9.986;2023-09-07T13:09:08;6.70;;;4.35;;
77581;SDS011;66726;52.388;9.986;2023-09-07T13:11:41;7.78;;;5.13;;
77581;SDS011;66726;52.388;9.986;2023-09-07T13:14:14;6.00;;;4.05;;
77581;SDS011;66726;52.388;9.986;2023-09-07T13:16:48;5.97;;;4.60;;
77581;SDS011;66726;52.388;9.986;2023-09-07T13:19:23;6.00;;;4.63;;
77581;SDS011;66726;52.388;9.986;2023-09-07T13:21:57;5.47;;;4.50;;
77581;SDS011;66726;52.388;9.986;2023-09-07T13:24:30;5.77;;;4.60;;
77581;SDS011;66726;52.388;9.986;2023-09-07T13:27:04;6.80;;;4.60;;
77581;SDS011;66726;52.388;9.986;2023-09-07T13:29:38;6.20;;;4.60;;
77581;SDS011;66726;52.388;9.986;2023-09-07T13:32:11;6.40;;;4.70;;
77581;SDS011;66726;52.388;9.986;2023-09-07T13:34:45;6.57;;;4.38;;
77581;SDS011;66726;52.388;9.986;2023-09-07T13:37:18;5.47;;;4.57;;
77581;SDS011;66726;52.388;9.986;2023-09-07T13:39:51;8.43;;;4.53;;
77581;SDS011;66726;52.388;9.986;2023-09-07T13:42:26;6.57;;;4.10;;
77581;SDS011;66726;52.388;9.986;2023-09-07T13:44:59;7.20;;;4.47;;
77581;SDS011;66726;52.388;9.986;2023-09-07T13:47:33;6.28;;;4.60;;
77581;SDS011;66726;52.388;9.986;2023-09-07T13:50:08;6.40;;;4.50;;
77581;SDS011;66726;52.388;9.986;2023-09-07T13:52:41;5.32;;;4.15;;
77581;SDS011;66726;52.388;9.986;2023-09-07T13:55:15;6.00;;;3.97;;
77581;SDS011;66726;52.388;9.986;2023-09-07T13:57:48;8.55;;;4.55;;
77581;SDS011;66726;52.388;9.986;2023-09-07T14:00:21;7.15;;;4.68;;
77581;SDS011;66726;52.388;9.986;2023-09-07T14:02:54;6.75;;;4.60;;
77581;SDS011;66726;52.388;9.986;2023-09-07T14:05:28;6.65;;;4.20;;
77581;SDS011;66726;52.388;9.986;2023-09-07T14:08:01;6.57;;;4.35;;
77581;SDS011;66726;52.388;9.986;2023-09-07T14:10:36;5.82;;;3.97;;
77581;SDS011;66726;52.388;9.986;2023-09-07T14:13:09;8.93;;;4.35;;
77581;SDS011;66726;52.388;9.986;2023-09-07T14:15:42;6.27;;;4.20;;
77581;SDS011;66726;52.388;9.986;2023-09-07T14:18:16;9.63;;;4.18;;
77581;SDS011;66726;52.388;9.986;2023-09-07T14:20:49;6.63;;;4.55;;
77581;SDS011;66726;52.388;9.986;2023-09-07T14:23:25;4.70;;;4.10;;
77581;SDS011;66726;52.388;9.986;2023-09-07T14:25:59;4.68;;;4.28;;
77581;SDS011;66726;52.388;9.986;2023-09-07T14:28:32;6.90;;;4.00;;
77581;SDS011;66726;52.388;9.986;2023-09-07T14:31:07;6.88;;;3.92;;
77581;SDS011;66726;52.388;9.986;2023-09-07T14:33:40;6.97;;;4.33;;
77581;SDS011;66726;52.388;9.986;2023-09-07T14:36:14;6.25;;;4.00;;
77581;SDS011;66726;52.388;9.986;2023-09-07T14:38:48;6.05;;;4.00;;
77581;SDS011;66726;52.388;9.986;2023-09-07T14:41:21;6.00;;;4.10;;
77581;SDS011;66726;52.388;9.986;2023-09-07T14:43:56;7.07;;;4.43;;
77581;SDS011;66726;52.388;9.986;2023-09-07T14:46:29;7.80;;;4.35;;
77581;SDS011;66726;52.388;9.986;2023-09-07T14:49:03;7.65;;;4.20;;
77581;SDS011;66726;52.388;9.986;2023-09-07T14:51:37;6.30;;;4.30;;
77581;SDS011;66726;52.388;9.986;2023-09-07T14:54:10;10.30;;;4.72;;
77581;SDS011;66726;52.388;9.986;2023-09-07T14:56:43;7.95;;;4.18;;
77581;SDS011;66726;52.388;9.986;2023-09-07T14:59:17;6.22;;;3.80;;
77581;SDS011;66726;52.388;9.986;2023-09-07T15:01:50;10.50;;;4.60;;
77581;SDS011;66726;52.388;9.986;2023-09-07T15:04:31;7.97;;;4.13;;
77581;SDS011;66726;52.388;9.986;2023-09-07T15:07:06;7.18;;;4.00;;
77581;SDS011;66726;52.388;9.986;2023-09-07T15:09:40;4.47;;;3.95;;
77581;SDS011;66726;52.388;9.986;2023-09-07T15:12:13;7.70;;;4.43;;
77581;SDS011;66726;52.388;9.986;2023-09-07T15:14:47;5.80;;;4.25;;
77581;SDS011;66726;52.388;9.986;2023-09-07T15:17:20;6.03;;;4.32;;
77581;SDS011;66726;52.388;9.986;2023-09-07T15:19:54;7.60;;;4.40;;
77581;SDS011;66726;52.388;9.986;2023-09-07T15:22:27;6.30;;;4.00;;
77581;SDS011;66726;52.388;9.986;2023-09-07T15:25:02;8.00;;;4.28;;
77581;SDS011;66726;52.388;9.986;2023-09-07T15:27:36;5.93;;;4.00;;